sensor_id;sensor_type;location;lat;lon;timestamp;P1;durP1;ratioP1;P2;durP2;ratioP2
66619;SDS011;53484;51.356;6.732;2023-03-14T00:00:06;6.25;;;2.38;;
66619;SDS011;53484;51.356;6.732;2023-03-14T00:02:33;8.15;;;1.83;;
66619;SDS011;53484;51.356;6.732;2023-03-14T00:04:59;6.00;;;1.73;;
66619;SDS011;53484;51.356;6.732;2023-03-14T00:07:27;9.88;;;1.63;;
66619;SDS011;53484;51.356;6.732;2023-03-14T00:09:56;7.13;;;1.40;;
66619;SDS011;53484;51.356;6.732;2023-03-14T00:12:23;5.10;;;1.52;;
66619;SDS011;53484;51.356;6.732;2023-03-14T00:14:49;8.88;;;1.55;;
66619;SDS011;53484;51.356;6.732;2023-03-14T00:17:17;10.73;;;1.75;;
66619;SDS011;53484;51.356;6.732;2023-03-14T00:19:43;8.95;;;2.05;;
66619;SDS011;53484;51.356;6.732;2023-03-14T00:22:09;7.80;;;1.37;;
66619;SDS011;53484;51.356;6.732;2023-03-14T00:24:35;9.40;;;1.77;;
66619;SDS011;53484;51.356;6.732;2023-03-14T00:27:02;7.97;;;1.75;;
66619;SDS011;53484;51.356;6.732;2023-03-14T00:29:28;11.18;;;1.80;;
66619;SDS011;53484;51.356;6.732;2023-03-14T00:31:54;11.68;;;2.28;;
66619;SDS011;53484;51.356;6.732;2023-03-14T00:34:22;15.27;;;2.80;;
66619;SDS011;53484;51.356;6.732;2023-03-14T00:36:48;32.55;;;2.50;;
66619;SDS011;53484;51.356;6.732;2023-03-14T00:39:14;7.82;;;1.60;;
66619;SDS011;53484;51.356;6.732;2023-03-14T00:41:41;8.07;;;1.90;;
66619;SDS011;53484;51.356;6.732;2023-03-14T00:44:07;9.85;;;1.60;;
66619;SDS011;53484;51.356;6.732;2023-03-14T00:46:33;10.23;;;1.33;;
66619;SDS011;53484;51.356;6.732;2023-03-14T00:49:00;8.82;;;2.03;;
66619;SDS011;53484;51.356;6.732;2023-03-14T00:51:27;8.52;;;1.33;;
66619;SDS011;53484;51.356;6.732;2023-03-14T00:53:54;9.85;;;1.30;;
66619;SDS011;53484;51.356;6.732;2023-03-14T00:56:20;8.70;;;1.52;;
66619;SDS011;53484;51.356;6.732;2023-03-14T00:58:46;7.73;;;1.70;;
66619;SDS011;53484;51.356;6.732;2023-03-14T01:01:13;6.90;;;1.52;;
66619;SDS011;53484;51.356;6.732;2023-03-14T01:03:40;7.68;;;1.60;;
66619;SDS011;53484;51.356;6.732;2023-03-14T01:06:07;6.38;;;1.20;;
66619;SDS011;53484;51.356;6.732;2023-03-14T01:08:35;8.63;;;1.30;;
66619;SDS011;53484;51.356;6.732;2023-03-14T01:11:04;8.00;;;1.57;;
66619;SDS011;53484;51.356;6.732;2023-03-14T01:13:30;13.02;;;1.77;;
66619;SDS011;53484;51.356;6.732;2023-03-14T01:16:00;12.70;;;1.80;;
66619;SDS011;53484;51.356;6.732;2023-03-14T01:18:26;11.52;;;1.98;;
66619;SDS011;53484;51.356;6.732;2023-03-14T01:20:52;7.07;;;1.40;;
66619;SDS011;53484;51.356;6.732;2023-03-14T01:23:19;13.10;;;1.40;;
66619;SDS011;53484;51.356;6.732;2023-03-14T01:25:46;9.57;;;1.60;;
66619;SDS011;53484;51.356;6.732;2023-03-14T01:28:13;12.52;;;1.30;;
66619;SDS011;53484;51.356;6.732;2023-03-14T01:30:39;10.35;;;1.65;;
66619;SDS011;53484;51.356;6.732;2023-03-14T01:33:05;7.43;;;1.40;;
66619;SDS011;53484;51.356;6.732;2023-03-14T01:35:31;11.73;;;1.60;;
66619;SDS011;53484;51.356;6.732;2023-03-14T01:37:58;8.13;;;1.25;;
66619;SDS011;53484;51.356;6.732;2023-03-14T01:40:24;10.23;;;1.48;;
66619;SDS011;53484;51.356;6.732;2023-03-14T01:42:55;10.05;;;1.30;;
66619;SDS011;53484;51.356;6.732;2023-03-14T01:48:06;12.57;;;1.80;;
66619;SDS011;53484;51.356;6.732;2023-03-14T01:50:32;6.32;;;1.88;;
66619;SDS011;53484;51.356;6.732;2023-03-14T01:52:59;6.35;;;1.65;;
66619;SDS011;53484;51.356;6.732;2023-03-14T01:55:26;5.45;;;1.23;;
66619;SDS011;53484;51.356;6.732;2023-03-14T01:57:52;15.00;;;2.35;;
66619;SDS011;53484;51.356;6.732;2023-03-14T02:00:22;12.20;;;1.77;;
66619;SDS011;53484;51.356;6.732;2023-03-14T02:02:49;9.05;;;1.58;;
66619;SDS011;53484;51.356;6.732;2023-03-14T02:05:17;6.45;;;1.33;;
66619;SDS011;53484;51.356;6.732;2023-03-14T02:07:45;8.20;;;1.33;;
66619;SDS011;53484;51.356;6.732;2023-03-14T02:10:13;13.98;;;2.13;;
66619;SDS011;53484;51.356;6.732;2023-03-14T02:12:39;5.90;;;1.10;;
66619;SDS011;53484;51.356;6.732;2023-03-14T02:15:06;13.82;;;1.83;;
66619;SDS011;53484;51.356;6.732;2023-03-14T02:17:34;6.40;;;1.42;;
66619;SDS011;53484;51.356;6.732;2023-03-14T02:20:13;10.43;;;1.45;;
66619;SDS011;53484;51.356;6.732;2023-03-14T02:22:41;12.23;;;2.15;;
66619;SDS011;53484;51.356;6.732;2023-03-14T02:25:08;10.13;;;2.40;;
66619;SDS011;53484;51.356;6.732;2023-03-14T02:27:37;10.63;;;1.58;;
66619;SDS011;53484;51.356;6.732;2023-03-14T02:30:04;9.13;;;1.38;;
66619;SDS011;53484;51.356;6.732;2023-03-14T02:32:32;13.95;;;1.65;;
66619;SDS011;53484;51.356;6.732;2023-03-14T02:35:00;8.73;;;1.55;;
66619;SDS011;53484;51.356;6.732;2023-03-14T02:37:28;15.00;;;2.00;;
66619;SDS011;53484;51.356;6.732;2023-03-14T02:39:56;9.35;;;1.83;;
66619;SDS011;53484;51.356;6.732;2023-03-14T02:42:22;9.95;;;1.60;;
66619;SDS011;53484;51.356;6.732;2023-03-14T02:44:54;8.05;;;1.25;;
66619;SDS011;53484;51.356;6.732;2023-03-14T02:47:22;9.65;;;1.98;;
66619;SDS011;53484;51.356;6.732;2023-03-14T02:49:52;7.70;;;1.80;;
66619;SDS011;53484;51.356;6.732;2023-03-14T02:52:19;10.70;;;1.77;;
66619;SDS011;53484;51.356;6.732;2023-03-14T02:54:45;11.27;;;1.50;;
66619;SDS011;53484;51.356;6.732;2023-03-14T02:57:12;11.93;;;1.90;;
66619;SDS011;53484;51.356;6.732;2023-03-14T02:59:38;9.30;;;1.73;;
66619;SDS011;53484;51.356;6.732;2023-03-14T03:02:05;9.97;;;1.40;;
66619;SDS011;53484;51.356;6.732;2023-03-14T03:04:32;13.57;;;2.45;;
66619;SDS011;53484;51.356;6.732;2023-03-14T03:06:58;6.95;;;1.30;;
66619;SDS011;53484;51.356;6.732;2023-03-14T03:09:24;8.15;;;1.70;;
66619;SDS011;53484;51.356;6.732;2023-03-14T03:11:50;7.60;;;1.35;;
66619;SDS011;53484;51.356;6.732;2023-03-14T03:14:18;7.20;;;1.50;;
66619;SDS011;53484;51.356;6.732;2023-03-14T03:16:44;7.95;;;1.75;;
66619;SDS011;53484;51.356;6.732;2023-03-14T03:19:12;9.48;;;1.50;;
66619;SDS011;53484;51.356;6.732;2023-03-14T03:21:38;6.72;;;1.38;;
66619;SDS011;53484;51.356;6.732;2023-03-14T03:24:04;8.80;;;1.52;;
66619;SDS011;53484;51.356;6.732;2023-03-14T03:26:32;9.30;;;1.57;;
66619;SDS011;53484;51.356;6.732;2023-03-14T03:28:59;9.25;;;1.65;;
66619;SDS011;53484;51.356;6.732;2023-03-14T03:31:25;14.05;;;1.80;;
66619;SDS011;53484;51.356;6.732;2023-03-14T03:33:51;10.55;;;1.88;;
66619;SDS011;53484;51.356;6.732;2023-03-14T03:36:21;17.05;;;2.10;;
66619;SDS011;53484;51.356;6.732;2023-03-14T03:38:48;7.57;;;1.87;;
66619;SDS011;53484;51.356;6.732;2023-03-14T03:41:14;10.60;;;1.70;;
66619;SDS011;53484;51.356;6.732;2023-03-14T03:43:41;11.07;;;2.22;;
66619;SDS011;53484;51.356;6.732;2023-03-14T03:46:07;9.35;;;1.70;;
66619;SDS011;53484;51.356;6.732;2023-03-14T03:48:34;12.27;;;2.53;;
66619;SDS011;53484;51.356;6.732;2023-03-14T03:51:00;9.27;;;2.10;;
66619;SDS011;53484;51.356;6.732;2023-03-14T03:53:28;8.60;;;1.65;;
66619;SDS011;53484;51.356;6.732;2023-03-14T03:55:54;10.60;;;2.00;;
66619;SDS011;53484;51.356;6.732;2023-03-14T03:58:21;9.27;;;1.80;;
66619;SDS011;53484;51.356;6.732;2023-03-14T04:00:47;10.07;;;2.10;;
66619;SDS011;53484;51.356;6.732;2023-03-14T04:03:13;10.07;;;1.53;;
66619;SDS011;53484;51.356;6.732;2023-03-14T04:05:39;12.13;;;2.00;;
66619;SDS011;53484;51.356;6.732;2023-03-14T04:08:06;10.07;;;2.03;;
66619;SDS011;53484;51.356;6.732;2023-03-14T04:10:35;16.88;;;1.67;;
66619;SDS011;53484;51.356;6.732;2023-03-14T04:13:01;5.53;;;1.27;;
66619;SDS011;53484;51.356;6.732;2023-03-14T04:15:28;5.83;;;1.30;;
66619;SDS011;53484;51.356;6.732;2023-03-14T04:17:56;13.32;;;1.80;;
66619;SDS011;53484;51.356;6.732;2023-03-14T04:20:22;6.53;;;1.35;;
66619;SDS011;53484;51.356;6.732;2023-03-14T04:22:48;5.30;;;1.10;;
66619;SDS011;53484;51.356;6.732;2023-03-14T04:25:15;5.97;;;1.75;;
66619;SDS011;53484;51.356;6.732;2023-03-14T04:27:43;9.50;;;1.40;;
66619;SDS011;53484;51.356;6.732;2023-03-14T04:30:10;6.32;;;1.02;;
66619;SDS011;53484;51.356;6.732;2023-03-14T04:32:38;5.72;;;0.95;;
66619;SDS011;53484;51.356;6.732;2023-03-14T04:35:05;6.07;;;1.20;;
66619;SDS011;53484;51.356;6.732;2023-03-14T04:37:31;2.88;;;1.10;;
66619;SDS011;53484;51.356;6.732;2023-03-14T04:39:57;4.60;;;1.20;;
66619;SDS011;53484;51.356;6.732;2023-03-14T04:42:24;7.63;;;1.48;;
66619;SDS011;53484;51.356;6.732;2023-03-14T04:44:51;8.07;;;1.40;;
66619;SDS011;53484;51.356;6.732;2023-03-14T04:47:18;5.07;;;1.55;;
66619;SDS011;53484;51.356;6.732;2023-03-14T04:49:44;5.32;;;1.00;;
66619;SDS011;53484;51.356;6.732;2023-03-14T04:52:10;3.90;;;1.30;;
66619;SDS011;53484;51.356;6.732;2023-03-14T04:54:36;4.18;;;1.40;;
66619;SDS011;53484;51.356;6.732;2023-03-14T04:57:03;5.85;;;1.50;;
66619;SDS011;53484;51.356;6.732;2023-03-14T04:59:29;6.07;;;1.20;;
66619;SDS011;53484;51.356;6.732;2023-03-14T05:01:56;9.00;;;1.10;;
66619;SDS011;53484;51.356;6.732;2023-03-14T05:04:23;5.47;;;1.50;;
66619;SDS011;53484;51.356;6.732;2023-03-14T05:06:49;4.63;;;1.20;;
66619;SDS011;53484;51.356;6.732;2023-03-14T05:09:16;2.75;;;1.10;;
66619;SDS011;53484;51.356;6.732;2023-03-14T05:11:43;4.63;;;1.10;;
66619;SDS011;53484;51.356;6.732;2023-03-14T05:14:09;4.97;;;0.98;;
66619;SDS011;53484;51.356;6.732;2023-03-14T05:16:35;3.03;;;0.87;;
66619;SDS011;53484;51.356;6.732;2023-03-14T05:19:03;6.20;;;1.13;;
66619;SDS011;53484;51.356;6.732;2023-03-14T05:21:29;4.07;;;1.35;;
66619;SDS011;53484;51.356;6.732;2023-03-14T05:23:56;3.72;;;1.23;;
66619;SDS011;53484;51.356;6.732;2023-03-14T05:26:22;7.53;;;1.27;;
66619;SDS011;53484;51.356;6.732;2023-03-14T05:28:48;3.73;;;1.10;;
66619;SDS011;53484;51.356;6.732;2023-03-14T05:31:15;6.07;;;1.60;;
66619;SDS011;53484;51.356;6.732;2023-03-14T05:33:41;7.35;;;1.88;;
66619;SDS011;53484;51.356;6.732;2023-03-14T05:36:09;7.47;;;2.05;;
66619;SDS011;53484;51.356;6.732;2023-03-14T05:38:35;4.35;;;1.95;;
66619;SDS011;53484;51.356;6.732;2023-03-14T05:41:02;6.40;;;2.30;;
66619;SDS011;53484;51.356;6.732;2023-03-14T05:43:28;4.03;;;1.80;;
66619;SDS011;53484;51.356;6.732;2023-03-14T05:45:54;5.28;;;1.70;;
66619;SDS011;53484;51.356;6.732;2023-03-14T05:48:21;5.90;;;1.63;;
66619;SDS011;53484;51.356;6.732;2023-03-14T05:50:47;8.70;;;1.70;;
66619;SDS011;53484;51.356;6.732;2023-03-14T05:53:15;5.73;;;1.80;;
66619;SDS011;53484;51.356;6.732;2023-03-14T05:55:42;4.07;;;1.50;;
66619;SDS011;53484;51.356;6.732;2023-03-14T05:58:08;5.47;;;1.50;;
66619;SDS011;53484;51.356;6.732;2023-03-14T06:00:34;6.57;;;1.77;;
66619;SDS011;53484;51.356;6.732;2023-03-14T06:03:01;6.78;;;1.27;;
66619;SDS011;53484;51.356;6.732;2023-03-14T06:05:27;6.53;;;1.50;;
66619;SDS011;53484;51.356;6.732;2023-03-14T06:07:53;3.60;;;1.38;;
66619;SDS011;53484;51.356;6.732;2023-03-14T06:10:21;2.90;;;0.80;;
66619;SDS011;53484;51.356;6.732;2023-03-14T06:12:47;4.88;;;0.85;;
66619;SDS011;53484;51.356;6.732;2023-03-14T06:15:13;2.97;;;0.80;;
66619;SDS011;53484;51.356;6.732;2023-03-14T06:17:40;2.03;;;0.83;;
66619;SDS011;53484;51.356;6.732;2023-03-14T06:20:06;3.00;;;0.90;;
66619;SDS011;53484;51.356;6.732;2023-03-14T06:22:32;3.47;;;0.82;;
66619;SDS011;53484;51.356;6.732;2023-03-14T06:24:59;4.85;;;0.95;;
66619;SDS011;53484;51.356;6.732;2023-03-14T06:27:26;2.50;;;1.10;;
66619;SDS011;53484;51.356;6.732;2023-03-14T06:29:53;2.63;;;1.00;;
66619;SDS011;53484;51.356;6.732;2023-03-14T06:32:19;3.30;;;0.93;;
66619;SDS011;53484;51.356;6.732;2023-03-14T06:34:46;1.85;;;0.70;;
66619;SDS011;53484;51.356;6.732;2023-03-14T06:37:12;2.25;;;0.75;;
66619;SDS011;53484;51.356;6.732;2023-03-14T06:39:39;1.90;;;1.00;;
66619;SDS011;53484;51.356;6.732;2023-03-14T06:42:05;2.40;;;0.80;;
66619;SDS011;53484;51.356;6.732;2023-03-14T06:44:33;4.63;;;0.63;;
66619;SDS011;53484;51.356;6.732;2023-03-14T06:46:59;2.35;;;0.60;;
66619;SDS011;53484;51.356;6.732;2023-03-14T06:49:25;2.10;;;0.70;;
66619;SDS011;53484;51.356;6.732;2023-03-14T06:51:52;4.10;;;0.80;;
66619;SDS011;53484;51.356;6.732;2023-03-14T06:54:18;2.90;;;0.80;;
66619;SDS011;53484;51.356;6.732;2023-03-14T06:56:44;2.53;;;0.80;;
66619;SDS011;53484;51.356;6.732;2023-03-14T06:59:11;1.60;;;0.60;;
66619;SDS011;53484;51.356;6.732;2023-03-14T07:01:38;3.28;;;0.82;;
66619;SDS011;53484;51.356;6.732;2023-03-14T07:04:05;1.85;;;0.75;;
66619;SDS011;53484;51.356;6.732;2023-03-14T07:06:32;1.90;;;0.63;;
66619;SDS011;53484;51.356;6.732;2023-03-14T07:08:59;2.15;;;0.80;;
66619;SDS011;53484;51.356;6.732;2023-03-14T07:11:25;2.63;;;0.52;;
66619;SDS011;53484;51.356;6.732;2023-03-14T07:13:51;2.03;;;0.70;;
66619;SDS011;53484;51.356;6.732;2023-03-14T07:16:19;1.98;;;0.55;;
66619;SDS011;53484;51.356;6.732;2023-03-14T07:18:47;2.60;;;0.90;;
66619;SDS011;53484;51.356;6.732;2023-03-14T07:21:14;3.65;;;0.80;;
66619;SDS011;53484;51.356;6.732;2023-03-14T07:23:40;3.40;;;0.80;;
66619;SDS011;53484;51.356;6.732;2023-03-14T07:26:07;2.53;;;0.90;;
66619;SDS011;53484;51.356;6.732;2023-03-14T07:28:33;2.55;;;0.70;;
66619;SDS011;53484;51.356;6.732;2023-03-14T07:30:59;2.47;;;0.90;;
66619;SDS011;53484;51.356;6.732;2023-03-14T07:33:25;2.20;;;0.80;;
66619;SDS011;53484;51.356;6.732;2023-03-14T07:35:53;3.30;;;1.20;;
66619;SDS011;53484;51.356;6.732;2023-03-14T07:38:19;3.10;;;1.00;;
66619;SDS011;53484;51.356;6.732;2023-03-14T07:40:46;4.50;;;0.85;;
66619;SDS011;53484;51.356;6.732;2023-03-14T07:43:12;3.47;;;0.73;;
66619;SDS011;53484;51.356;6.732;2023-03-14T07:45:38;3.65;;;0.90;;
66619;SDS011;53484;51.356;6.732;2023-03-14T07:48:05;4.47;;;1.33;;
66619;SDS011;53484;51.356;6.732;2023-03-14T07:50:31;2.92;;;1.13;;
66619;SDS011;53484;51.356;6.732;2023-03-14T07:52:59;4.35;;;1.30;;
66619;SDS011;53484;51.356;6.732;2023-03-14T07:55:25;5.50;;;1.50;;
66619;SDS011;53484;51.356;6.732;2023-03-14T07:57:51;3.60;;;1.15;;
66619;SDS011;53484;51.356;6.732;2023-03-14T08:00:18;3.95;;;1.67;;
66619;SDS011;53484;51.356;6.732;2023-03-14T08:02:44;4.53;;;1.70;;
66619;SDS011;53484;51.356;6.732;2023-03-14T08:05:10;3.30;;;1.30;;
66619;SDS011;53484;51.356;6.732;2023-03-14T08:07:37;4.20;;;2.20;;
66619;SDS011;53484;51.356;6.732;2023-03-14T08:10:05;5.68;;;2.30;;
66619;SDS011;53484;51.356;6.732;2023-03-14T08:12:32;6.82;;;2.63;;
66619;SDS011;53484;51.356;6.732;2023-03-14T08:14:58;6.20;;;2.85;;
66619;SDS011;53484;51.356;6.732;2023-03-14T08:17:25;4.35;;;2.38;;
66619;SDS011;53484;51.356;6.732;2023-03-14T08:19:51;9.27;;;4.33;;
66619;SDS011;53484;51.356;6.732;2023-03-14T08:22:18;7.57;;;3.08;;
66619;SDS011;53484;51.356;6.732;2023-03-14T08:24:44;8.30;;;3.45;;
66619;SDS011;53484;51.356;6.732;2023-03-14T08:27:12;8.80;;;4.18;;
66619;SDS011;53484;51.356;6.732;2023-03-14T08:29:39;4.63;;;2.30;;
66619;SDS011;53484;51.356;6.732;2023-03-14T08:32:06;8.97;;;3.77;;
66619;SDS011;53484;51.356;6.732;2023-03-14T08:34:33;8.25;;;3.50;;
66619;SDS011;53484;51.356;6.732;2023-03-14T08:36:59;6.30;;;3.47;;
66619;SDS011;53484;51.356;6.732;2023-03-14T08:39:26;7.53;;;3.45;;
66619;SDS011;53484;51.356;6.732;2023-03-14T08:41:52;6.57;;;3.42;;
66619;SDS011;53484;51.356;6.732;2023-03-14T08:44:20;8.07;;;3.23;;
66619;SDS011;53484;51.356;6.732;2023-03-14T08:46:46;6.07;;;3.17;;
66619;SDS011;53484;51.356;6.732;2023-03-14T08:49:13;10.68;;;4.13;;
66619;SDS011;53484;51.356;6.732;2023-03-14T08:51:39;5.32;;;2.28;;
66619;SDS011;53484;51.356;6.732;2023-03-14T08:54:06;7.55;;;3.45;;
66619;SDS011;53484;51.356;6.732;2023-03-14T08:56:33;26.27;;;4.97;;
66619;SDS011;53484;51.356;6.732;2023-03-14T08:59:02;12.93;;;5.43;;
66619;SDS011;53484;51.356;6.732;2023-03-14T09:01:30;13.68;;;5.53;;
66619;SDS011;53484;51.356;6.732;2023-03-14T09:03:57;8.95;;;4.28;;
66619;SDS011;53484;51.356;6.732;2023-03-14T09:06:23;9.75;;;4.68;;
66619;SDS011;53484;51.356;6.732;2023-03-14T09:08:49;12.27;;;4.20;;
66619;SDS011;53484;51.356;6.732;2023-03-14T09:11:16;9.63;;;3.90;;
66619;SDS011;53484;51.356;6.732;2023-03-14T09:13:43;15.02;;;3.50;;
66619;SDS011;53484;51.356;6.732;2023-03-14T09:16:09;3.08;;;1.33;;
66619;SDS011;53484;51.356;6.732;2023-03-14T09:18:37;5.65;;;1.77;;
66619;SDS011;53484;51.356;6.732;2023-03-14T09:21:04;6.53;;;2.40;;
66619;SDS011;53484;51.356;6.732;2023-03-14T09:23:30;9.80;;;4.43;;
66619;SDS011;53484;51.356;6.732;2023-03-14T09:25:56;11.77;;;4.00;;
66619;SDS011;53484;51.356;6.732;2023-03-14T09:28:24;15.02;;;5.00;;
66619;SDS011;53484;51.356;6.732;2023-03-14T09:30:51;10.25;;;3.83;;
66619;SDS011;53484;51.356;6.732;2023-03-14T09:33:17;10.17;;;2.37;;
66619;SDS011;53484;51.356;6.732;2023-03-14T09:35:46;6.40;;;1.80;;
66619;SDS011;53484;51.356;6.732;2023-03-14T09:38:13;5.95;;;2.35;;
66619;SDS011;53484;51.356;6.732;2023-03-14T09:40:40;4.57;;;1.58;;
66619;SDS011;53484;51.356;6.732;2023-03-14T09:43:08;4.03;;;1.65;;
66619;SDS011;53484;51.356;6.732;2023-03-14T09:45:36;4.13;;;2.00;;
66619;SDS011;53484;51.356;6.732;2023-03-14T09:48:03;5.45;;;2.33;;
66619;SDS011;53484;51.356;6.732;2023-03-14T09:50:31;6.13;;;2.30;;
66619;SDS011;53484;51.356;6.732;2023-03-14T09:53:01;4.45;;;2.00;;
66619;SDS011;53484;51.356;6.732;2023-03-14T09:55:28;6.50;;;2.45;;
66619;SDS011;53484;51.356;6.732;2023-03-14T09:57:55;8.07;;;3.80;;
66619;SDS011;53484;51.356;6.732;2023-03-14T10:00:23;9.25;;;4.65;;
66619;SDS011;53484;51.356;6.732;2023-03-14T10:02:52;9.85;;;4.63;;
66619;SDS011;53484;51.356;6.732;2023-03-14T10:05:21;6.40;;;3.25;;
66619;SDS011;53484;51.356;6.732;2023-03-14T10:07:48;8.40;;;3.65;;
66619;SDS011;53484;51.356;6.732;2023-03-14T10:10:16;9.60;;;4.63;;
66619;SDS011;53484;51.356;6.732;2023-03-14T10:12:45;8.05;;;3.80;;
66619;SDS011;53484;51.356;6.732;2023-03-14T10:15:12;7.25;;;3.05;;
66619;SDS011;53484;51.356;6.732;2023-03-14T10:17:40;9.57;;;4.28;;
66619;SDS011;53484;51.356;6.732;2023-03-14T10:20:15;9.27;;;3.95;;
66619;SDS011;53484;51.356;6.732;2023-03-14T10:22:52;8.60;;;4.60;;
66619;SDS011;53484;51.356;6.732;2023-03-14T10:25:25;11.93;;;4.30;;
66619;SDS011;53484;51.356;6.732;2023-03-14T10:27:52;13.00;;;5.97;;
66619;SDS011;53484;51.356;6.732;2023-03-14T10:30:27;9.02;;;4.53;;
66619;SDS011;53484;51.356;6.732;2023-03-14T10:32:53;15.48;;;6.75;;
66619;SDS011;53484;51.356;6.732;2023-03-14T10:35:20;29.10;;;10.80;;
66619;SDS011;53484;51.356;6.732;2023-03-14T10:37:48;39.63;;;16.58;;
66619;SDS011;53484;51.356;6.732;2023-03-14T10:40:16;24.92;;;10.30;;
66619;SDS011;53484;51.356;6.732;2023-03-14T10:42:45;7.00;;;4.07;;
66619;SDS011;53484;51.356;6.732;2023-03-14T10:45:22;25.20;;;10.95;;
66619;SDS011;53484;51.356;6.732;2023-03-14T10:47:51;22.87;;;9.97;;
66619;SDS011;53484;51.356;6.732;2023-03-14T10:50:24;15.25;;;6.45;;
66619;SDS011;53484;51.356;6.732;2023-03-14T10:52:51;18.38;;;9.15;;
66619;SDS011;53484;51.356;6.732;2023-03-14T10:55:18;20.33;;;8.63;;
66619;SDS011;53484;51.356;6.732;2023-03-14T10:57:45;16.00;;;5.50;;
66619;SDS011;53484;51.356;6.732;2023-03-14T11:00:14;9.47;;;2.60;;
66619;SDS011;53484;51.356;6.732;2023-03-14T11:02:47;5.05;;;1.80;;
66619;SDS011;53484;51.356;6.732;2023-03-14T11:05:18;50.05;;;11.90;;
66619;SDS011;53484;51.356;6.732;2023-03-14T11:07:47;113.57;;;26.08;;
66619;SDS011;53484;51.356;6.732;2023-03-14T11:10:15;71.32;;;16.50;;
66619;SDS011;53484;51.356;6.732;2023-03-14T11:12:46;24.67;;;6.47;;
66619;SDS011;53484;51.356;6.732;2023-03-14T11:15:17;5.68;;;2.47;;
66619;SDS011;53484;51.356;6.732;2023-03-14T11:17:48;10.10;;;3.33;;
66619;SDS011;53484;51.356;6.732;2023-03-14T11:20:20;5.18;;;2.13;;
66619;SDS011;53484;51.356;6.732;2023-03-14T11:22:50;9.20;;;3.20;;
66619;SDS011;53484;51.356;6.732;2023-03-14T11:25:23;10.07;;;3.17;;
66619;SDS011;53484;51.356;6.732;2023-03-14T11:27:55;8.30;;;3.05;;
66619;SDS011;53484;51.356;6.732;2023-03-14T11:30:27;7.75;;;2.30;;
66619;SDS011;53484;51.356;6.732;2023-03-14T11:33:01;4.03;;;1.80;;
66619;SDS011;53484;51.356;6.732;2023-03-14T11:35:30;11.88;;;4.03;;
66619;SDS011;53484;51.356;6.732;2023-03-14T11:38:02;5.80;;;1.83;;
66619;SDS011;53484;51.356;6.732;2023-03-14T11:40:30;13.50;;;3.40;;
66619;SDS011;53484;51.356;6.732;2023-03-14T11:43:00;13.63;;;3.88;;
66619;SDS011;53484;51.356;6.732;2023-03-14T11:45:29;10.43;;;3.35;;
66619;SDS011;53484;51.356;6.732;2023-03-14T11:47:59;8.30;;;2.67;;
66619;SDS011;53484;51.356;6.732;2023-03-14T11:50:27;6.87;;;1.90;;
66619;SDS011;53484;51.356;6.732;2023-03-14T11:52:56;6.82;;;2.00;;
66619;SDS011;53484;51.356;6.732;2023-03-14T11:55:25;7.07;;;2.05;;
66619;SDS011;53484;51.356;6.732;2023-03-14T11:57:55;6.78;;;1.75;;
66619;SDS011;53484;51.356;6.732;2023-03-14T12:00:24;10.32;;;2.80;;
66619;SDS011;53484;51.356;6.732;2023-03-14T12:02:51;8.00;;;2.60;;
66619;SDS011;53484;51.356;6.732;2023-03-14T12:05:27;8.13;;;2.63;;
66619;SDS011;53484;51.356;6.732;2023-03-14T12:08:02;6.80;;;2.10;;
66619;SDS011;53484;51.356;6.732;2023-03-14T12:10:38;6.90;;;1.90;;
66619;SDS011;53484;51.356;6.732;2023-03-14T12:13:06;8.43;;;2.50;;
66619;SDS011;53484;51.356;6.732;2023-03-14T12:15:35;5.93;;;1.70;;
66619;SDS011;53484;51.356;6.732;2023-03-14T12:18:02;4.10;;;1.58;;
66619;SDS011;53484;51.356;6.732;2023-03-14T12:20:29;7.22;;;1.40;;
66619;SDS011;53484;51.356;6.732;2023-03-14T12:22:55;9.35;;;1.83;;
66619;SDS011;53484;51.356;6.732;2023-03-14T12:25:24;4.45;;;1.60;;
66619;SDS011;53484;51.356;6.732;2023-03-14T12:30:37;12.05;;;2.13;;
66619;SDS011;53484;51.356;6.732;2023-03-14T12:35:57;12.38;;;2.10;;
66619;SDS011;53484;51.356;6.732;2023-03-14T12:38:25;12.35;;;2.03;;
66619;SDS011;53484;51.356;6.732;2023-03-14T12:40:57;13.80;;;2.17;;
66619;SDS011;53484;51.356;6.732;2023-03-14T12:43:25;11.05;;;2.50;;
66619;SDS011;53484;51.356;6.732;2023-03-14T12:46:14;14.77;;;2.50;;
66619;SDS011;53484;51.356;6.732;2023-03-14T12:48:41;11.82;;;2.88;;
66619;SDS011;53484;51.356;6.732;2023-03-14T12:51:12;13.90;;;2.20;;
66619;SDS011;53484;51.356;6.732;2023-03-14T12:53:45;15.83;;;1.93;;
66619;SDS011;53484;51.356;6.732;2023-03-14T12:56:26;13.65;;;1.98;;
66619;SDS011;53484;51.356;6.732;2023-03-14T12:59:05;10.07;;;2.20;;
66619;SDS011;53484;51.356;6.732;2023-03-14T13:01:37;18.33;;;2.03;;
66619;SDS011;53484;51.356;6.732;2023-03-14T13:04:11;16.83;;;2.92;;
66619;SDS011;53484;51.356;6.732;2023-03-14T13:06:46;13.17;;;2.87;;
66619;SDS011;53484;51.356;6.732;2023-03-14T13:12:00;12.40;;;2.10;;
66619;SDS011;53484;51.356;6.732;2023-03-14T13:14:27;15.73;;;2.20;;
66619;SDS011;53484;51.356;6.732;2023-03-14T13:16:55;13.18;;;1.88;;
66619;SDS011;53484;51.356;6.732;2023-03-14T13:19:23;17.27;;;3.20;;
66619;SDS011;53484;51.356;6.732;2023-03-14T13:21:50;13.27;;;2.38;;
66619;SDS011;53484;51.356;6.732;2023-03-14T13:24:20;16.50;;;2.38;;
66619;SDS011;53484;51.356;6.732;2023-03-14T13:26:47;14.02;;;1.77;;
66619;SDS011;53484;51.356;6.732;2023-03-14T13:29:15;17.80;;;2.58;;
66619;SDS011;53484;51.356;6.732;2023-03-14T13:31:43;14.47;;;3.63;;
66619;SDS011;53484;51.356;6.732;2023-03-14T13:34:11;14.25;;;2.47;;
66619;SDS011;53484;51.356;6.732;2023-03-14T13:36:37;11.38;;;1.67;;
66619;SDS011;53484;51.356;6.732;2023-03-14T13:39:06;14.23;;;2.20;;
66619;SDS011;53484;51.356;6.732;2023-03-14T13:41:32;10.88;;;2.22;;
66619;SDS011;53484;51.356;6.732;2023-03-14T13:44:01;16.43;;;3.17;;
66619;SDS011;53484;51.356;6.732;2023-03-14T13:46:28;16.95;;;2.20;;
66619;SDS011;53484;51.356;6.732;2023-03-14T13:48:56;17.20;;;2.40;;
66619;SDS011;53484;51.356;6.732;2023-03-14T13:51:25;17.67;;;3.15;;
66619;SDS011;53484;51.356;6.732;2023-03-14T13:53:54;14.27;;;2.53;;
66619;SDS011;53484;51.356;6.732;2023-03-14T13:56:22;16.53;;;2.83;;
66619;SDS011;53484;51.356;6.732;2023-03-14T13:58:49;14.23;;;2.30;;
66619;SDS011;53484;51.356;6.732;2023-03-14T14:01:16;23.85;;;3.85;;
66619;SDS011;53484;51.356;6.732;2023-03-14T14:03:44;21.58;;;3.70;;
66619;SDS011;53484;51.356;6.732;2023-03-14T14:06:23;14.95;;;3.13;;
66619;SDS011;53484;51.356;6.732;2023-03-14T14:08:53;23.13;;;3.07;;
66619;SDS011;53484;51.356;6.732;2023-03-14T14:11:21;19.38;;;4.40;;
66619;SDS011;53484;51.356;6.732;2023-03-14T14:13:48;14.25;;;3.00;;
66619;SDS011;53484;51.356;6.732;2023-03-14T14:16:15;13.00;;;2.30;;
66619;SDS011;53484;51.356;6.732;2023-03-14T14:18:42;15.38;;;2.20;;
66619;SDS011;53484;51.356;6.732;2023-03-14T14:21:08;14.17;;;2.37;;
66619;SDS011;53484;51.356;6.732;2023-03-14T14:23:35;11.35;;;1.50;;
66619;SDS011;53484;51.356;6.732;2023-03-14T14:26:05;14.15;;;1.40;;
66619;SDS011;53484;51.356;6.732;2023-03-14T14:28:33;10.23;;;1.80;;
66619;SDS011;53484;51.356;6.732;2023-03-14T14:31:00;10.80;;;1.90;;
66619;SDS011;53484;51.356;6.732;2023-03-14T14:33:27;13.50;;;1.63;;
66619;SDS011;53484;51.356;6.732;2023-03-14T14:35:55;6.63;;;1.73;;
66619;SDS011;53484;51.356;6.732;2023-03-14T14:38:22;13.75;;;1.80;;
66619;SDS011;53484;51.356;6.732;2023-03-14T14:40:49;9.30;;;1.42;;
66619;SDS011;53484;51.356;6.732;2023-03-14T14:43:18;12.52;;;1.60;;
66619;SDS011;53484;51.356;6.732;2023-03-14T14:45:45;12.20;;;1.83;;
66619;SDS011;53484;51.356;6.732;2023-03-14T14:48:13;7.20;;;1.48;;
66619;SDS011;53484;51.356;6.732;2023-03-14T14:50:48;11.65;;;1.67;;
66619;SDS011;53484;51.356;6.732;2023-03-14T14:53:19;10.38;;;1.40;;
66619;SDS011;53484;51.356;6.732;2023-03-14T14:55:49;8.50;;;1.73;;